Time;durP1;ratioP1;P1;durP2;ratioP2;P2;SDS_P1;SDS_P2;PMS_P1;PMS_P2;Temp;Humidity;BMP_temperature;BMP_pressure;BME280_temperature;BME280_humidity;BME280_pressure;Samples;Min_cycle;Max_cycle;Signal;HPM_P1;HPM_P2
2022/01/10 00:00:54;;;;;;;7.70;5.13;;;0.90;99.90;;;;;;5016431;28;20076;-78
2022/01/10 00:03:22;;;;;;;8.27;4.87;;;0.90;99.90;;;;;;5016085;28;20459;-78
2022/01/10 00:05:48;;;;;;;7.23;5.03;;;0.90;99.90;;;;;;5015946;28;20418;-78
2022/01/10 00:08:14;;;;;;;8.27;5.20;;;0.80;99.90;;;;;;5014756;28;20029;-78
2022/01/10 00:10:40;;;;;;;10.77;5.83;;;0.80;99.90;;;;;;5016012;28;20033;-78
2022/01/10 00:13:06;;;;;;;8.97;5.43;;;0.80;99.90;;;;;;5015901;28;20033;-78
2022/01/10 00:15:32;;;;;;;8.77;6.07;;;0.90;99.90;;;;;;5015674;28;20452;-78
2022/01/10 00:17:58;;;;;;;10.70;6.27;;;0.80;99.90;;;;;;5014349;28;20113;-78
2022/01/10 00:20:24;;;;;;;8.73;5.80;;;0.80;99.90;;;;;;5015613;28;20467;-78
2022/01/10 00:22:50;;;;;;;10.63;5.77;;;0.80;99.90;;;;;;5015809;28;20030;-77
2022/01/10 00:25:19;;;;;;;9.77;6.40;;;0.80;99.90;;;;;;5015915;28;20053;-78
2022/01/10 00:27:45;;;;;;;9.57;6.30;;;0.80;99.90;;;;;;5015605;28;20037;-78
2022/01/10 00:30:12;;;;;;;12.00;6.27;;;0.80;99.90;;;;;;5015281;28;20034;-78
2022/01/10 00:32:39;;;;;;;9.30;5.63;;;0.80;99.90;;;;;;5014181;28;20033;-78
2022/01/10 00:35:06;;;;;;;8.97;5.00;;;0.80;99.90;;;;;;5015442;28;20030;-79
2022/01/10 00:37:33;;;;;;;8.03;4.77;;;0.80;99.90;;;;;;5015844;28;20029;-78
2022/01/10 00:39:59;;;;;;;8.50;5.50;;;0.80;99.90;;;;;;5015266;28;20025;-78
2022/01/10 00:42:24;;;;;;;7.23;4.83;;;0.70;99.90;;;;;;5013809;28;20220;-78
2022/01/10 00:44:51;;;;;;;9.23;4.93;;;0.70;99.90;;;;;;5015386;28;20069;-78
2022/01/10 00:47:18;;;;;;;8.47;4.83;;;0.70;99.90;;;;;;5014942;28;20022;-78
2022/01/10 00:49:45;;;;;;;8.40;5.37;;;0.70;99.90;;;;;;5014901;28;20038;-78
2022/01/10 00:52:10;;;;;;;11.03;5.80;;;0.70;99.90;;;;;;5015389;28;20160;-78
2022/01/10 00:54:37;;;;;;;7.23;4.73;;;0.70;99.90;;;;;;5015348;28;20488;-78
2022/01/10 00:57:03;;;;;;;8.03;5.03;;;0.60;99.90;;;;;;5015098;28;20030;-78
2022/01/10 00:59:28;;;;;;;7.47;5.20;;;0.60;99.90;;;;;;5014633;28;20041;-78
2022/01/10 01:01:54;;;;;;;8.67;4.87;;;0.60;99.90;;;;;;5015183;28;20025;-78
2022/01/10 01:04:20;;;;;;;7.47;5.10;;;0.60;99.90;;;;;;5014577;28;20034;-78
2022/01/10 01:06:47;;;;;;;11.77;4.37;;;0.60;99.90;;;;;;5014600;28;20028;-78
2022/01/10 01:09:15;;;;;;;11.87;4.40;;;0.60;99.90;;;;;;5014391;28;20053;-78
2022/01/10 01:14:38;;;;;;;6.80;4.27;;;0.60;99.90;;;;;;5015049;28;20513;-78
2022/01/10 01:17:15;;;;;;;5.27;3.67;;;0.60;99.90;;;;;;5014889;28;20034;-78
2022/01/10 01:20:07;;;;;;;7.17;4.00;;;0.50;99.90;;;;;;5012999;28;20041;-78
2022/01/10 01:25:17;;;;;;;8.23;3.87;;;0.50;99.90;;;;;;5014527;28;20049;-78
2022/01/10 01:27:43;;;;;;;5.60;3.67;;;0.50;99.90;;;;;;5014162;28;20025;-77
2022/01/10 01:30:11;;;;;;;5.67;3.93;;;0.50;99.90;;;;;;5014487;28;20076;-78
2022/01/10 01:32:37;;;;;;;5.67;3.80;;;0.50;99.90;;;;;;5014125;28;20061;-78
2022/01/10 01:35:07;;;;;;;7.10;5.27;;;0.40;99.90;;;;;;5014301;28;20034;-77
2022/01/10 01:37:35;;;;;;;6.17;4.30;;;0.50;99.90;;;;;;5014173;28;20030;-78
2022/01/10 01:40:01;;;;;;;8.07;4.73;;;0.50;99.90;;;;;;5014269;28;20072;-78
2022/01/10 01:42:36;;;;;;;7.03;4.27;;;0.40;99.90;;;;;;5013925;28;20030;-78
2022/01/10 01:45:05;;;;;;;13.07;5.57;;;0.40;99.90;;;;;;5014225;28;20018;-78
2022/01/10 01:47:31;;;;;;;6.33;4.43;;;0.40;99.90;;;;;;5014111;28;20057;-77
2022/01/10 01:49:58;;;;;;;7.53;4.70;;;0.40;99.90;;;;;;5014067;28;20117;-78
2022/01/10 01:52:24;;;;;;;7.97;4.97;;;0.40;99.90;;;;;;5014284;28;20014;-78
2022/01/10 01:54:50;;;;;;;13.40;4.90;;;0.50;99.90;;;;;;5013831;28;20050;-78
2022/01/10 01:57:15;;;;;;;9.37;5.10;;;0.50;99.90;;;;;;5014077;28;20068;-78
2022/01/10 01:59:41;;;;;;;6.43;4.60;;;0.50;99.90;;;;;;5012298;28;20391;-78
2022/01/10 02:02:07;;;;;;;6.33;4.57;;;0.50;99.90;;;;;;5013934;28;20053;-78
2022/01/10 02:04:32;;;;;;;10.23;4.73;;;0.50;99.90;;;;;;5013904;28;20045;-78
2022/01/10 02:06:58;;;;;;;7.40;4.90;;;0.50;99.90;;;;;;5012323;28;20037;-77
2022/01/10 02:09:24;;;;;;;7.70;4.40;;;0.50;99.90;;;;;;5013750;28;20380;-78
2022/01/10 02:11:49;;;;;;;11.27;5.50;;;0.50;99.90;;;;;;5014005;28;20033;-78
2022/01/10 02:14:16;;;;;;;8.50;4.80;;;0.50;99.90;;;;;;5012235;28;20121;-78
2022/01/10 02:16:44;;;;;;;8.17;4.50;;;0.50;99.90;;;;;;5013455;28;20383;-77
2022/01/10 02:19:11;;;;;;;8.67;5.80;;;0.50;99.90;;;;;;5013342;28;20021;-77
2022/01/10 02:21:37;;;;;;;9.00;5.40;;;0.50;99.90;;;;;;5013679;28;20052;-77
2022/01/10 02:24:04;;;;;;;7.77;5.77;;;0.50;99.90;;;;;;5013304;28;20074;-77
2022/01/10 02:26:30;;;;;;;11.47;5.27;;;0.50;99.90;;;;;;5013343;28;20022;-77
2022/01/10 02:28:56;;;;;;;6.53;4.40;;;0.50;99.90;;;;;;5013639;28;20427;-78
2022/01/10 02:31:22;;;;;;;8.37;5.07;;;0.50;99.90;;;;;;5012002;28;20032;-78
2022/01/10 02:33:50;;;;;;;8.03;5.03;;;0.60;99.90;;;;;;5013228;28;20088;-77
2022/01/10 02:36:26;;;;;;;8.43;5.17;;;0.60;99.90;;;;;;5013695;28;20032;-78
2022/01/10 02:38:54;;;;;;;9.50;5.33;;;0.60;99.90;;;;;;5013127;28;20105;-78
2022/01/10 02:41:31;;;;;;;8.37;5.47;;;0.60;99.90;;;;;;5013137;28;20033;-77
2022/01/10 02:43:59;;;;;;;7.50;5.17;;;0.60;99.90;;;;;;5013478;28;20030;-78
2022/01/10 02:46:26;;;;;;;8.80;5.27;;;0.60;99.90;;;;;;5013386;28;20026;-78
2022/01/10 02:48:52;;;;;;;14.03;6.60;;;0.60;99.90;;;;;;5013610;28;20110;-78
2022/01/10 02:51:19;;;;;;;10.33;6.10;;;0.60;99.90;;;;;;5013581;28;20212;-77
2022/01/10 02:53:44;;;;;;;11.83;5.53;;;0.60;99.90;;;;;;5013251;28;20494;-78
2022/01/10 02:56:10;;;;;;;7.73;5.33;;;0.60;99.90;;;;;;5012996;28;20030;-78
2022/01/10 02:58:36;;;;;;;10.17;5.43;;;0.60;99.90;;;;;;5013386;28;20022;-78
2022/01/10 03:01:02;;;;;;;8.20;4.73;;;0.60;99.90;;;;;;5011689;28;20021;-78
2022/01/10 03:03:30;;;;;;;6.90;4.87;;;0.60;99.90;;;;;;5012920;28;20509;-78
2022/01/10 03:05:56;;;;;;;7.00;5.20;;;0.60;99.90;;;;;;5012962;28;20553;-77
2022/01/10 03:08:22;;;;;;;6.83;5.03;;;0.60;99.90;;;;;;5011575;28;20152;-78
2022/01/10 03:10:47;;;;;;;9.80;4.70;;;0.60;99.90;;;;;;5011553;28;20120;-78
2022/01/10 03:13:13;;;;;;;7.60;5.10;;;0.50;99.90;;;;;;5012772;28;20026;-78
2022/01/10 03:15:39;;;;;;;7.03;4.60;;;0.50;99.90;;;;;;5013089;28;20034;-77
2022/01/10 03:18:04;;;;;;;8.67;4.70;;;0.50;99.90;;;;;;5012684;28;20464;-78
2022/01/10 03:20:30;;;;;;;8.93;4.43;;;0.50;99.90;;;;;;5013009;28;20048;-78
2022/01/10 03:22:55;;;;;;;10.63;5.37;;;0.50;99.90;;;;;;5012848;28;20366;-78
2022/01/10 03:25:21;;;;;;;9.97;5.57;;;0.50;99.90;;;;;;5012942;28;20352;-78
2022/01/10 03:27:46;;;;;;;11.57;5.57;;;0.50;99.90;;;;;;5012996;28;20037;-78
2022/01/10 03:30:15;;;;;;;8.50;5.87;;;0.50;99.90;;;;;;5013019;28;20036;-78
2022/01/10 03:32:41;;;;;;;9.00;6.37;;;0.50;99.90;;;;;;5015040;28;20056;-77
2022/01/10 03:35:07;;;;;;;7.53;5.60;;;0.60;99.90;;;;;;5016504;28;20030;-73
2022/01/10 03:37:33;;;;;;;11.80;6.23;;;0.60;99.90;;;;;;5016127;28;20033;-72
2022/01/10 03:39:58;;;;;;;7.10;5.50;;;0.60;99.90;;;;;;5016467;28;20462;-73
2022/01/10 03:42:24;;;;;;;13.13;6.27;;;0.60;99.90;;;;;;5016441;28;20153;-73
2022/01/10 03:44:49;;;;;;;8.87;5.97;;;0.60;99.90;;;;;;5016219;28;20022;-73
2022/01/10 03:47:17;;;;;;;9.73;6.20;;;0.60;99.90;;;;;;5016332;28;20128;-73
2022/01/10 03:49:43;;;;;;;10.80;5.57;;;0.60;99.90;;;;;;5034370;28;20450;-77
2022/01/10 03:52:09;;;;;;;11.00;6.93;;;0.60;99.90;;;;;;5034248;28;20032;-82
2022/01/10 03:54:34;;;;;;;12.67;6.50;;;0.60;99.90;;;;;;5031069;28;20371;-81
2022/01/10 03:57:00;;;;;;;11.47;6.40;;;0.60;99.90;;;;;;5039448;28;20492;-81
2022/01/10 03:59:26;;;;;;;7.17;5.30;;;0.60;99.90;;;;;;5033914;28;20061;-82
2022/01/10 04:01:52;;;;;;;8.90;5.57;;;0.60;99.90;;;;;;5045197;28;20385;-82
2022/01/10 04:04:18;;;;;;;8.33;5.80;;;0.60;99.90;;;;;;5052627;28;20028;-82
2022/01/10 04:06:44;;;;;;;14.20;5.83;;;0.50;99.90;;;;;;5045461;28;20022;-82
2022/01/10 04:09:09;;;;;;;12.73;6.07;;;0.60;99.90;;;;;;5032674;28;20482;-82
2022/01/10 04:11:36;;;;;;;10.73;5.30;;;0.60;99.90;;;;;;5032529;28;20040;-82
2022/01/10 04:14:02;;;;;;;9.37;5.87;;;0.50;99.90;;;;;;5032293;28;20025;-82
2022/01/10 04:16:27;;;;;;;8.23;5.03;;;0.50;99.90;;;;;;5032527;28;20540;-82
2022/01/10 04:18:53;;;;;;;8.17;5.17;;;0.50;99.90;;;;;;5032315;28;20072;-82
2022/01/10 04:21:19;;;;;;;8.60;5.47;;;0.50;99.90;;;;;;5030479;28;20083;-82
2022/01/10 04:23:44;;;;;;;7.67;5.10;;;0.50;99.90;;;;;;5031961;28;20046;-82
2022/01/10 04:26:10;;;;;;;10.60;4.87;;;0.50;99.90;;;;;;5032395;28;20076;-82
2022/01/10 04:28:36;;;;;;;9.33;5.50;;;0.50;99.90;;;;;;5032494;28;20056;-82
2022/01/10 04:31:03;;;;;;;10.90;5.97;;;0.50;99.90;;;;;;5032333;28;20029;-82
2022/01/10 04:33:30;;;;;;;11.30;6.13;;;0.40;99.90;;;;;;5032212;28;20504;-81
2022/01/10 04:35:56;;;;;;;8.67;6.00;;;0.40;99.90;;;;;;5032272;28;20029;-82
2022/01/10 04:38:22;;;;;;;10.77;6.23;;;0.50;99.90;;;;;;5031791;28;20033;-82
2022/01/10 04:40:48;;;;;;;12.40;5.63;;;0.40;99.90;;;;;;5032041;28;20071;-81
2022/01/10 04:43:14;;;;;;;9.27;5.97;;;0.40;99.90;;;;;;5031023;28;20030;-81
2022/01/10 04:45:39;;;;;;;10.67;6.73;;;0.40;99.90;;;;;;5031766;28;20399;-82
2022/01/10 04:48:05;;;;;;;10.70;6.97;;;0.50;99.90;;;;;;5031703;28;20051;-82
2022/01/10 04:52:59;;;;;;;16.73;7.60;;;0.50;99.90;;;;;;5031800;28;20363;-81
2022/01/10 04:55:25;;;;;;;11.90;8.07;;;0.50;99.90;;;;;;5030607;28;20033;-81
2022/01/10 04:57:50;;;;;;;10.90;7.73;;;0.50;99.90;;;;;;5031604;28;20057;-82
2022/01/10 05:00:17;;;;;;;11.93;7.67;;;0.50;99.90;;;;;;5031799;28;20152;-81
2022/01/10 05:02:45;;;;;;;13.00;8.07;;;0.50;99.90;;;;;;5031618;28;20069;-82
2022/01/10 05:05:10;;;;;;;10.67;8.00;;;0.50;99.90;;;;;;5031584;28;20025;-81
2022/01/10 05:07:36;;;;;;;10.20;7.37;;;0.50;99.90;;;;;;5031825;28;20029;-82
2022/01/10 05:10:02;;;;;;;14.53;8.97;;;0.50;99.90;;;;;;5031251;28;20121;-82
2022/01/10 05:12:28;;;;;;;12.77;8.10;;;0.50;99.90;;;;;;5031544;28;20387;-82
2022/01/10 05:14:54;;;;;;;15.07;8.70;;;0.60;99.90;;;;;;5031856;28;20026;-82
2022/01/10 05:17:22;;;;;;;14.60;8.67;;;0.50;99.90;;;;;;5023269;28;20034;-82
2022/01/10 05:19:47;;;;;;;15.83;8.63;;;0.60;99.90;;;;;;5015785;28;20109;-83
2022/01/10 05:22:13;;;;;;;12.77;8.17;;;0.60;99.90;;;;;;5016003;28;20538;-81
2022/01/10 05:24:39;;;;;;;11.80;8.23;;;0.60;99.90;;;;;;5013661;28;20119;-82
2022/01/10 05:27:05;;;;;;;14.03;8.63;;;0.60;99.90;;;;;;5016557;28;20036;-79
2022/01/10 05:29:31;;;;;;;15.13;9.13;;;0.60;99.90;;;;;;5017281;28;20746;-78
2022/01/10 05:31:56;;;;;;;14.17;8.73;;;0.60;99.90;;;;;;5017299;28;20037;-78
2022/01/10 05:34:22;;;;;;;13.83;8.70;;;0.70;99.90;;;;;;5018927;28;20049;-78
2022/01/10 05:36:48;;;;;;;13.13;9.50;;;0.60;99.90;;;;;;5018454;28;20029;-78
2022/01/10 05:39:13;;;;;;;20.23;9.47;;;0.60;99.90;;;;;;5018426;28;20390;-78
2022/01/10 05:41:39;;;;;;;13.37;9.30;;;0.60;99.90;;;;;;5033524;28;20026;-78
2022/01/10 05:44:05;;;;;;;16.03;9.97;;;0.70;99.90;;;;;;5017388;28;20049;-78
2022/01/10 05:46:31;;;;;;;15.30;9.73;;;0.70;99.90;;;;;;5018675;28;20025;-78
2022/01/10 05:49:01;;;;;;;17.97;11.30;;;0.70;99.90;;;;;;5017884;28;20037;-78
2022/01/10 05:51:29;;;;;;;14.77;10.20;;;0.70;99.90;;;;;;5017892;28;20040;-79
2022/01/10 05:53:55;;;;;;;16.50;10.57;;;0.70;99.90;;;;;;5017126;28;20160;-78
2022/01/10 05:56:21;;;;;;;14.40;9.67;;;0.70;99.90;;;;;;5017616;28;20223;-78
2022/01/10 05:58:47;;;;;;;17.77;10.47;;;0.70;99.90;;;;;;5016715;28;20091;-78
2022/01/10 06:01:13;;;;;;;21.50;10.60;;;0.70;99.90;;;;;;5017534;28;20466;-78
2022/01/10 06:03:39;;;;;;;14.87;10.70;;;0.70;99.90;;;;;;5016903;28;20025;-78
2022/01/10 06:06:04;;;;;;;19.13;11.20;;;0.70;99.90;;;;;;5026924;28;20022;-78
2022/01/10 06:08:30;;;;;;;17.40;11.27;;;0.70;99.90;;;;;;5016559;28;20053;-78
2022/01/10 06:10:55;;;;;;;17.07;11.23;;;0.70;99.90;;;;;;5016738;28;20033;-79
2022/01/10 06:13:21;;;;;;;16.37;11.37;;;0.70;99.90;;;;;;5015732;28;20040;-78
2022/01/10 06:15:47;;;;;;;15.90;11.87;;;0.70;99.90;;;;;;5027948;28;20033;-78
2022/01/10 06:18:12;;;;;;;18.33;11.30;;;0.70;99.90;;;;;;5013533;28;20052;-78
2022/01/10 06:20:38;;;;;;;16.50;10.77;;;0.70;99.90;;;;;;5013982;28;21098;-79
2022/01/10 06:23:04;;;;;;;18.40;11.40;;;0.80;99.90;;;;;;5015291;28;20044;-79
2022/01/10 06:25:30;;;;;;;17.50;12.13;;;0.70;99.90;;;;;;5015900;28;20736;-79
2022/01/10 06:27:57;;;;;;;18.27;11.60;;;0.70;99.90;;;;;;5013039;28;20037;-83
2022/01/10 06:30:27;;;;;;;17.10;11.30;;;0.80;99.90;;;;;;5024872;28;20473;-74
2022/01/10 06:32:55;;;;;;;18.03;12.30;;;0.80;99.90;;;;;;5033307;28;20025;-78
2022/01/10 06:35:21;;;;;;;18.93;13.23;;;0.80;99.90;;;;;;5032978;28;20033;-77
2022/01/10 06:37:46;;;;;;;21.17;13.33;;;0.80;99.90;;;;;;5032709;28;20510;-77
2022/01/10 06:40:12;;;;;;;19.53;13.20;;;0.80;99.90;;;;;;5033227;28;20028;-77
2022/01/10 06:42:38;;;;;;;20.17;13.50;;;0.80;99.90;;;;;;5033238;28;20029;-77
2022/01/10 06:45:04;;;;;;;21.70;13.00;;;0.80;99.90;;;;;;5032953;28;20434;-77
2022/01/10 06:47:29;;;;;;;20.43;13.40;;;0.80;99.90;;;;;;5032859;28;20034;-77
2022/01/10 06:49:55;;;;;;;21.73;13.40;;;0.80;99.90;;;;;;5031518;28;20365;-74
2022/01/10 06:52:20;;;;;;;19.87;13.77;;;0.80;99.90;;;;;;5029314;28;20080;-74
2022/01/10 06:54:46;;;;;;;22.13;14.73;;;0.80;99.90;;;;;;5013022;28;20036;-74
2022/01/10 06:57:12;;;;;;;23.13;14.70;;;0.80;99.90;;;;;;5028108;28;20441;-73
2022/01/10 06:59:37;;;;;;;25.77;15.43;;;0.90;99.90;;;;;;5031803;28;20025;-73
2022/01/10 07:02:05;;;;;;;22.00;15.87;;;0.90;99.90;;;;;;5032705;28;20100;-73
2022/01/10 07:04:32;;;;;;;23.40;14.77;;;0.80;99.90;;;;;;5032988;28;20073;-73
2022/01/10 07:06:58;;;;;;;23.97;14.90;;;0.80;99.90;;;;;;5033896;28;20021;-72
2022/01/10 07:09:23;;;;;;;25.87;15.10;;;0.90;99.90;;;;;;5036308;28;20021;-73
2022/01/10 07:11:49;;;;;;;23.47;15.30;;;0.90;99.90;;;;;;5036738;28;20038;-73
2022/01/10 07:14:16;;;;;;;25.10;15.37;;;0.90;99.90;;;;;;5035229;28;20032;-73
2022/01/10 07:16:43;;;;;;;25.40;15.17;;;0.90;99.90;;;;;;5036176;28;20342;-74
2022/01/10 07:19:08;;;;;;;22.63;14.43;;;0.90;99.90;;;;;;5036402;28;20485;-74
2022/01/10 07:21:37;;;;;;;24.10;14.97;;;0.90;99.90;;;;;;5034001;28;20029;-72
2022/01/10 07:24:04;;;;;;;19.83;13.87;;;0.90;99.90;;;;;;5018947;28;20050;-74
2022/01/10 07:26:32;;;;;;;22.83;14.73;;;0.90;99.90;;;;;;5024064;28;20056;-82
2022/01/10 07:28:58;;;;;;;29.27;15.47;;;0.90;99.90;;;;;;5019769;28;20076;-82
2022/01/10 07:31:24;;;;;;;23.23;15.40;;;0.90;99.90;;;;;;5018373;28;20029;-79
2022/01/10 07:33:49;;;;;;;25.07;16.43;;;0.90;99.90;;;;;;5020744;28;20434;-78
2022/01/10 07:36:15;;;;;;;24.53;16.17;;;0.90;99.90;;;;;;5036809;28;20027;-78
2022/01/10 07:38:40;;;;;;;24.70;14.97;;;0.90;99.90;;;;;;5036100;28;20048;-78
2022/01/10 07:41:07;;;;;;;24.60;15.17;;;0.90;99.90;;;;;;5036137;28;20485;-79
2022/01/10 07:43:34;;;;;;;28.00;16.90;;;0.90;99.90;;;;;;5036134;28;20474;-77
2022/01/10 07:46:07;;;;;;;21.53;15.00;;;1.00;99.90;;;;;;5035919;28;20108;-77
2022/01/10 07:48:36;;;;;;;21.57;15.07;;;1.00;99.90;;;;;;5034733;28;20051;-77
2022/01/10 07:51:03;;;;;;;22.87;15.20;;;1.00;99.90;;;;;;5034905;28;20041;-74
2022/01/10 07:53:29;;;;;;;22.87;15.80;;;1.00;99.90;;;;;;5035932;28;20055;-74
2022/01/10 07:55:55;;;;;;;23.23;15.30;;;1.00;99.90;;;;;;5036245;28;20381;-74
2022/01/10 07:58:20;;;;;;;21.20;14.87;;;1.00;99.90;;;;;;5020916;28;20026;-81
2022/01/10 08:00:46;;;;;;;23.13;15.33;;;1.00;99.90;;;;;;5018219;28;20083;-81
2022/01/10 08:03:11;;;;;;;21.30;15.10;;;1.10;99.90;;;;;;5019166;28;20041;-81
2022/01/10 08:05:37;;;;;;;21.07;13.83;;;1.10;99.90;;;;;;5016782;28;20029;-81
2022/01/10 08:08:03;;;;;;;22.70;14.23;;;1.10;99.90;;;;;;5019910;28;20029;-81
2022/01/10 08:10:28;;;;;;;24.63;14.00;;;1.20;99.90;;;;;;5029066;28;20034;-72
2022/01/10 08:12:54;;;;;;;24.43;14.23;;;1.20;99.90;;;;;;5033985;28;20116;-73
2022/01/10 08:15:20;;;;;;;24.83;15.23;;;1.20;99.90;;;;;;5025917;28;20060;-73
2022/01/10 08:17:46;;;;;;;21.27;15.33;;;1.20;99.90;;;;;;5022850;28;20026;-79
2022/01/10 08:20:13;;;;;;;23.53;15.13;;;1.20;99.90;;;;;;5016086;28;20049;-76
2022/01/10 08:22:38;;;;;;;25.20;14.90;;;1.30;99.90;;;;;;5014229;28;20021;-77
2022/01/10 08:25:07;;;;;;;22.43;14.97;;;1.30;99.90;;;;;;5030455;28;20438;-77
2022/01/10 08:27:33;;;;;;;26.30;14.50;;;1.30;99.90;;;;;;5015489;28;20493;-82
2022/01/10 08:29:59;;;;;;;23.23;13.93;;;1.30;99.90;;;;;;5016676;28;20473;-82
2022/01/10 08:32:24;;;;;;;23.77;14.13;;;1.30;99.90;;;;;;5016509;28;20026;-82
2022/01/10 08:34:53;;;;;;;22.47;15.07;;;1.40;99.90;;;;;;5017666;28;20148;-82
2022/01/10 08:37:18;;;;;;;28.30;15.67;;;1.40;99.90;;;;;;5015347;28;20463;-82
2022/01/10 08:39:49;;;;;;;24.33;13.47;;;1.50;99.90;;;;;;5018979;28;20036;-74
2022/01/10 08:42:21;;;;;;;23.43;14.03;;;1.50;99.90;;;;;;5034665;28;20014;-74
2022/01/10 08:44:47;;;;;;;24.00;14.43;;;1.60;99.90;;;;;;5034969;28;20032;-74
2022/01/10 08:47:16;;;;;;;27.00;15.53;;;1.60;99.90;;;;;;5035180;28;20160;-74
2022/01/10 08:49:42;;;;;;;21.80;15.20;;;1.60;99.90;;;;;;5025749;28;20401;-79
2022/01/10 08:52:09;;;;;;;28.63;14.60;;;1.60;99.90;;;;;;5016900;28;20470;-79
2022/01/10 08:54:34;;;;;;;25.07;14.67;;;1.60;99.90;;;;;;5017097;28;20034;-79
2022/01/10 08:57:01;;;;;;;23.70;14.70;;;1.60;99.90;;;;;;5017953;28;20040;-79
2022/01/10 08:59:28;;;;;;;25.37;14.57;;;1.70;99.90;;;;;;5015368;28;20033;-79
2022/01/10 09:01:55;;;;;;;21.43;12.60;;;1.70;99.90;;;;;;5015937;28;20097;-79
2022/01/10 09:04:21;;;;;;;19.80;12.63;;;1.80;99.90;;;;;;5031064;28;20079;-77
2022/01/10 09:06:49;;;;;;;21.80;13.30;;;2.00;99.90;;;;;;5021573;28;20033;-82
2022/01/10 09:09:15;;;;;;;21.30;12.53;;;2.20;99.90;;;;;;5015554;28;20146;-82
2022/01/10 09:11:41;;;;;;;21.37;13.23;;;2.20;99.90;;;;;;5023371;28;20033;-74
2022/01/10 09:14:08;;;;;;;20.87;13.17;;;2.20;99.90;;;;;;5034201;28;20553;-74
2022/01/10 09:16:34;;;;;;;20.63;13.80;;;2.20;99.90;;;;;;5034291;28;20103;-74
2022/01/10 09:18:59;;;;;;;20.00;12.77;;;2.30;99.90;;;;;;5026022;28;20029;-80
2022/01/10 09:21:25;;;;;;;23.93;13.70;;;2.30;99.90;;;;;;5013400;28;20084;-79
2022/01/10 09:23:51;;;;;;;22.83;14.17;;;2.30;99.90;;;;;;5026301;28;20045;-76
2022/01/10 09:26:17;;;;;;;21.33;13.67;;;2.20;99.90;;;;;;5034202;28;20021;-77
2022/01/10 09:28:45;;;;;;;31.90;15.43;;;2.20;99.90;;;;;;5034210;28;20029;-74
2022/01/10 09:31:12;;;;;;;26.20;14.43;;;2.30;99.90;;;;;;5030279;28;20053;-80
2022/01/10 09:33:38;;;;;;;28.93;15.60;;;2.50;99.90;;;;;;5030932;28;20037;-79
2022/01/10 09:36:04;;;;;;;22.50;13.90;;;2.50;99.90;;;;;;5019583;28;20021;-68
2022/01/10 09:38:29;;;;;;;20.23;12.93;;;2.70;99.90;;;;;;5021402;28;20055;-76
2022/01/10 09:40:55;;;;;;;23.50;13.60;;;2.80;99.90;;;;;;5013819;28;20026;-76
2022/01/10 09:43:21;;;;;;;21.50;13.33;;;2.80;99.90;;;;;;5029213;28;20541;-77
2022/01/10 09:45:48;;;;;;;28.80;16.00;;;2.60;99.90;;;;;;5013781;28;20096;-77
2022/01/10 09:48:14;;;;;;;22.97;14.70;;;2.50;99.90;;;;;;5014297;28;20057;-81
2022/01/10 09:50:40;;;;;;;24.60;15.20;;;2.40;99.90;;;;;;5014821;28;20037;-81
2022/01/10 09:53:06;;;;;;;25.53;14.97;;;2.40;99.90;;;;;;5014593;28;20044;-81
2022/01/10 09:55:34;;;;;;;29.90;15.30;;;2.30;99.90;;;;;;5012404;28;20025;-81
2022/01/10 09:58:00;;;;;;;22.97;15.00;;;2.40;99.90;;;;;;5032017;28;20397;-81
2022/01/10 10:00:26;;;;;;;26.40;15.87;;;2.50;99.90;;;;;;5016351;28;20493;-82
2022/01/10 10:02:52;;;;;;;28.07;16.17;;;2.60;99.90;;;;;;5015824;28;20026;-82
2022/01/10 10:05:19;;;;;;;21.73;14.80;;;2.50;99.90;;;;;;5019290;28;20044;-79
2022/01/10 10:07:45;;;;;;;26.93;15.03;;;2.50;99.90;;;;;;5016506;28;20039;-79
2022/01/10 10:10:12;;;;;;;25.60;15.53;;;2.70;99.90;;;;;;5015953;28;20833;-79
2022/01/10 10:12:47;;;;;;;25.53;15.30;;;2.70;99.90;;;;;;5017286;28;20025;-79
2022/01/10 10:15:16;;;;;;;26.77;15.47;;;2.60;99.90;;;;;;5016510;28;20025;-79
2022/01/10 10:17:42;;;;;;;28.10;14.97;;;2.50;99.90;;;;;;5016761;28;20026;-82
2022/01/10 10:20:09;;;;;;;22.33;14.70;;;2.50;99.90;;;;;;5016980;28;20034;-82
2022/01/10 10:22:38;;;;;;;24.03;16.07;;;2.50;99.90;;;;;;5015854;28;20826;-82
2022/01/10 10:25:07;;;;;;;27.80;15.70;;;2.50;99.90;;;;;;5014697;28;20041;-81
2022/01/10 10:27:41;;;;;;;27.93;15.33;;;2.80;99.90;;;;;;5013867;28;20105;-81
2022/01/10 10:30:20;;;;;;;24.50;14.87;;;3.10;99.90;;;;;;5011804;28;20022;-81
2022/01/10 10:32:47;;;;;;;22.80;15.37;;;3.20;99.90;;;;;;5014791;28;20088;-79
2022/01/10 10:35:14;;;;;;;23.07;14.23;;;3.30;99.90;;;;;;5014273;28;20424;-80
2022/01/10 10:37:42;;;;;;;26.80;15.47;;;3.30;99.90;;;;;;5014781;28;20088;-81
2022/01/10 10:40:13;;;;;;;25.43;16.10;;;3.40;99.90;;;;;;5015074;28;20025;-81
2022/01/10 10:42:40;;;;;;;33.60;19.07;;;3.20;99.90;;;;;;5016543;28;20037;-81
2022/01/10 10:45:07;;;;;;;46.07;25.43;;;3.00;99.90;;;;;;5016645;28;20124;-80
2022/01/10 10:47:38;;;;;;;25.90;15.77;;;2.90;99.90;;;;;;5019789;28;20100;-80
2022/01/10 10:50:06;;;;;;;28.73;15.60;;;3.00;99.90;;;;;;5034269;28;20860;-80
2022/01/10 10:52:34;;;;;;;27.77;16.80;;;3.10;99.90;;;;;;5042752;28;20033;-73
2022/01/10 10:55:09;;;;;;;33.53;18.27;;;3.40;99.90;;;;;;5017864;28;20045;-81
2022/01/10 10:57:35;;;;;;;26.08;15.93;;;3.20;99.90;;;;;;5029231;28;20064;-74
2022/01/10 11:00:04;;;;;;;32.50;16.50;;;3.00;99.90;;;;;;5035278;28;20030;-74
2022/01/10 11:02:30;;;;;;;23.80;15.10;;;3.10;99.90;;;;;;5037276;28;20033;-73
2022/01/10 11:04:56;;;;;;;22.33;13.93;;;3.30;99.90;;;;;;5037345;28;20060;-80
2022/01/10 11:07:24;;;;;;;20.30;13.70;;;3.40;99.90;;;;;;5020724;28;20028;-80
2022/01/10 11:09:50;;;;;;;28.47;18.30;;;3.40;99.90;;;;;;5020620;28;20026;-81
2022/01/10 11:12:21;;;;;;;24.03;15.23;;;3.20;99.90;;;;;;5029140;28;20108;-80
2022/01/10 11:14:47;;;;;;;29.67;17.37;;;3.20;99.90;;;;;;5020267;28;20120;-80
2022/01/10 11:17:20;;;;;;;20.60;13.43;;;3.40;99.90;;;;;;5021480;28;20386;-81
2022/01/10 11:20:09;;;;;;;20.90;13.67;;;3.50;99.90;;;;;;5021108;28;20030;-81
2022/01/10 11:22:46;;;;;;;21.47;12.80;;;3.40;99.90;;;;;;5016477;28;20030;-76
2022/01/10 11:25:32;;;;;;;66.70;30.03;;;3.40;99.90;;;;;;5019497;28;20042;-78
2022/01/10 11:28:05;;;;;;;;;;;3.40;99.90;;;;;;5020196;28;20043;-78
2022/01/10 11:30:41;;;;;;;22.07;12.43;;;3.40;99.90;;;;;;5016308;28;19975;-73
2022/01/10 11:33:16;;;;;;;23.77;14.03;;;3.40;99.90;;;;;;5016904;28;20033;-73
2022/01/10 11:35:53;;;;;;;26.40;13.38;;;3.30;99.90;;;;;;5033668;28;20060;-74
2022/01/10 11:38:41;;;;;;;18.77;11.83;;;3.40;99.90;;;;;;5034758;28;20072;-76
2022/01/10 11:41:14;;;;;;;17.87;10.63;;;3.30;99.90;;;;;;5036100;28;20052;-74
2022/01/10 11:43:47;;;;;;;16.07;10.80;;;3.30;99.90;;;;;;5036085;28;20097;-73
2022/01/10 11:47:04;;;;;;;15.77;11.13;;;3.30;99.90;;;;;;5035205;28;20021;-74
2022/01/10 11:49:30;;;;;;;17.35;12.50;;;3.30;99.90;;;;;;5036002;28;20026;-74
2022/01/10 11:51:56;;;;;;;21.47;11.93;;;3.40;99.90;;;;;;5035879;28;20021;-74
2022/01/10 11:54:37;;;;;;;21.97;12.30;;;3.40;99.90;;;;;;5035335;28;20474;-74
2022/01/10 11:57:08;;;;;;;22.40;12.53;;;3.50;99.90;;;;;;5026814;28;20631;-78
2022/01/10 11:59:37;;;;;;;20.10;13.43;;;3.60;99.90;;;;;;5016571;28;20032;-76
2022/01/10 12:02:14;;;;;;;20.77;13.67;;;3.60;99.90;;;;;;5034412;28;20014;-76
2022/01/10 12:04:47;;;;;;;20.07;12.67;;;3.50;99.90;;;;;;5035506;28;20040;-76
2022/01/10 12:07:15;;;;;;;21.67;12.83;;;3.60;99.90;;;;;;5035239;28;20025;-76
2022/01/10 12:09:41;;;;;;;22.03;12.77;;;3.60;99.90;;;;;;5025453;28;20176;-78
2022/01/10 12:12:10;;;;;;;22.77;12.73;;;3.60;99.90;;;;;;5026191;28;20040;-74
2022/01/10 12:14:36;;;;;;;21.50;11.93;;;3.60;99.90;;;;;;5036014;28;20018;-73
2022/01/10 12:17:02;;;;;;;22.07;12.47;;;3.70;99.90;;;;;;5035920;28;20033;-74
2022/01/10 12:19:28;;;;;;;19.30;12.13;;;3.70;99.90;;;;;;5035092;28;20026;-77
2022/01/10 12:21:54;;;;;;;20.03;11.47;;;3.70;99.90;;;;;;5035047;28;20098;-77
2022/01/10 12:24:20;;;;;;;20.87;13.40;;;3.70;99.90;;;;;;5025653;28;20477;-82
2022/01/10 12:26:46;;;;;;;21.63;13.00;;;3.50;99.90;;;;;;5015783;28;20025;-81
2022/01/10 12:29:13;;;;;;;20.90;13.03;;;3.40;99.90;;;;;;5016675;28;20393;-81
2022/01/10 12:31:41;;;;;;;19.20;11.90;;;3.50;99.90;;;;;;5016650;28;20034;-81
2022/01/10 12:34:08;;;;;;;20.77;12.00;;;3.40;99.90;;;;;;5016517;28;20041;-76
2022/01/10 12:36:36;;;;;;;21.03;12.17;;;3.30;99.90;;;;;;5015048;28;20029;-76
2022/01/10 12:39:26;;;;;;;19.37;12.27;;;3.30;99.90;;;;;;5030273;28;20026;-81
2022/01/10 12:41:56;;;;;;;21.73;12.87;;;3.30;99.90;;;;;;5015741;28;20049;-81
2022/01/10 12:44:21;;;;;;;19.77;12.10;;;3.30;99.90;;;;;;5016206;28;20118;-78
2022/01/10 12:47:03;;;;;;;20.67;12.27;;;3.40;99.90;;;;;;5021730;28;20454;-76
2022/01/10 12:49:28;;;;;;;20.90;12.83;;;3.30;99.90;;;;;;5013439;28;20497;-76
2022/01/10 12:51:56;;;;;;;23.10;13.77;;;3.30;99.90;;;;;;5014927;28;20030;-76